createdAt,value
2023-03-27T00:01:11.948Z,101248.88
2023-03-27T00:03:40.174Z,101249.84
2023-03-27T00:06:09.205Z,101246.25
2023-03-27T00:08:36.704Z,101244.06
2023-03-27T00:11:03.809Z,101242.13
2023-03-27T00:13:31.548Z,101231.38
2023-03-27T00:15:59.791Z,101230.41
2023-03-27T00:18:28.279Z,101215.38
2023-03-27T00:20:58.758Z,101213.41
2023-03-27T00:23:26.004Z,101211.47
2023-03-27T00:25:54.318Z,101196.59
2023-03-27T00:28:20.927Z,101205.94
2023-03-27T00:30:48.309Z,101196.97
2023-03-27T00:33:15.382Z,101198.63
2023-03-27T00:35:49.877Z,101206.19
2023-03-27T00:38:16.722Z,101214.75
2023-03-27T00:40:45.380Z,101229.41
2023-03-27T00:43:34.577Z,101233.66
2023-03-27T00:46:03.849Z,101235.31
2023-03-27T00:48:34.582Z,101245.81
2023-03-27T00:51:01.610Z,101248.31
2023-03-27T00:53:30.106Z,101249.69
2023-03-27T00:56:01.509Z,101243.59
2023-03-27T00:58:42.151Z,101246.34
2023-03-27T01:01:13.030Z,101254.81
2023-03-27T01:03:42.215Z,101270.69
2023-03-27T01:06:13.971Z,101288.78
2023-03-27T01:08:43.767Z,101292.22
2023-03-27T01:11:34.121Z,101311.69
2023-03-27T01:14:08.238Z,101326.06
2023-03-27T01:16:59.891Z,101318.59
2023-03-27T01:19:41.903Z,101321.78
2023-03-27T01:22:46.120Z,101320.00
2023-03-27T01:25:54.395Z,101306.88
2023-03-27T01:28:39.116Z,101309.91
2023-03-27T01:31:25.519Z,101301.34
2023-03-27T01:34:04.271Z,101305.50
2023-03-27T01:36:51.982Z,101316.41
2023-03-27T01:39:39.241Z,101326.78
2023-03-27T01:42:18.445Z,101332.41
2023-03-27T01:48:02.489Z,101332.97
2023-03-27T01:50:51.712Z,101334.88
2023-03-27T01:53:39.886Z,101339.44
2023-03-27T01:56:26.115Z,101333.94
2023-03-27T01:59:04.116Z,101324.28
2023-03-27T02:01:36.852Z,101318.06
2023-03-27T02:04:05.737Z,101306.06
2023-03-27T02:06:41.802Z,101313.38
2023-03-27T02:09:19.050Z,101312.13
2023-03-27T02:11:58.781Z,101324.97
2023-03-27T02:14:30.740Z,101319.56
2023-03-27T02:17:07.388Z,101323.84
2023-03-27T02:19:38.079Z,101322.06
2023-03-27T02:22:04.656Z,101312.69
2023-03-27T02:24:31.208Z,101314.91
2023-03-27T02:27:13.306Z,101320.16
2023-03-27T02:29:44.553Z,101337.09
2023-03-27T02:32:38.147Z,101345.25
2023-03-27T02:37:57.949Z,101341.81
2023-03-27T02:40:27.804Z,101349.38
2023-03-27T02:43:13.355Z,101356.16
2023-03-27T02:46:00.007Z,101357.38
2023-03-27T02:48:49.753Z,101352.56
2023-03-27T02:51:19.210Z,101352.84
2023-03-27T02:53:51.399Z,101354.63
2023-03-27T02:56:22.313Z,101358.19
2023-03-27T02:58:57.526Z,101366.00
2023-03-27T03:01:26.832Z,101366.72
2023-03-27T03:03:58.957Z,101373.38
2023-03-27T03:06:31.744Z,101376.94
2023-03-27T03:09:05.163Z,101380.72
2023-03-27T03:11:35.077Z,101382.44
2023-03-27T03:14:01.654Z,101368.38
2023-03-27T03:16:29.575Z,101357.91
2023-03-27T03:18:56.821Z,101350.53
2023-03-27T03:21:23.483Z,101337.47
2023-03-27T03:23:58.172Z,101318.28
2023-03-27T03:26:27.148Z,101298.41
2023-03-27T03:28:59.742Z,101295.66
2023-03-27T03:31:28.093Z,101279.38
2023-03-27T03:33:54.589Z,101272.81
2023-03-27T03:36:21.144Z,101266.63
2023-03-27T03:38:48.022Z,101252.91
2023-03-27T03:41:14.680Z,101248.78
2023-03-27T03:43:41.349Z,101247.44
2023-03-27T03:46:07.918Z,101241.50
2023-03-27T03:48:34.524Z,101242.75
2023-03-27T03:51:01.124Z,101251.94
2023-03-27T03:53:27.697Z,101251.84
2023-03-27T03:55:54.300Z,101254.81
2023-03-27T03:58:20.871Z,101243.69
2023-03-27T04:01:02.897Z,101238.84
2023-03-27T04:03:32.388Z,101240.91
2023-03-27T04:06:05.515Z,101247.91
2023-03-27T04:08:32.992Z,101247.03
2023-03-27T04:10:59.618Z,101256.00
2023-03-27T04:13:26.602Z,101245.59
2023-03-27T04:15:53.227Z,101249.72
2023-03-27T04:18:19.908Z,101256.41
2023-03-27T04:20:49.791Z,101257.03
2023-03-27T04:23:20.214Z,101259.28
2023-03-27T04:25:47.170Z,101261.03
2023-03-27T04:28:17.456Z,101270.09
2023-03-27T04:30:45.039Z,101278.53
2023-03-27T04:33:18.821Z,101274.97
2023-03-27T04:35:46.846Z,101259.94
2023-03-27T04:38:36.746Z,101267.78
2023-03-27T04:41:03.806Z,101257.06
2023-03-27T04:43:30.818Z,101258.00
2023-03-27T04:45:57.390Z,101254.59
2023-03-27T04:48:23.955Z,101248.66
2023-03-27T04:50:50.491Z,101257.69
2023-03-27T04:53:18.260Z,101211.47
2023-03-27T04:55:45.874Z,101205.81
2023-03-27T04:58:13.026Z,101212.94
2023-03-27T05:00:40.366Z,101206.56
2023-03-27T05:03:06.991Z,101207.13
2023-03-27T05:05:34.779Z,101216.53
2023-03-27T05:08:01.621Z,101208.50
2023-03-27T05:10:28.151Z,101218.81
2023-03-27T05:12:57.162Z,101222.38
2023-03-27T05:15:25.007Z,101235.97
2023-03-27T05:17:54.612Z,101238.13
2023-03-27T05:20:22.225Z,101253.66
2023-03-27T05:22:49.633Z,101250.84
2023-03-27T05:25:16.290Z,101268.59
2023-03-27T05:27:50.536Z,101273.84
2023-03-27T05:30:21.105Z,101284.41
2023-03-27T05:32:49.741Z,101294.28
2023-03-27T05:35:18.030Z,101293.00
2023-03-27T05:37:49.350Z,101289.56
2023-03-27T05:40:17.398Z,101286.91
2023-03-27T05:42:45.430Z,101282.81
2023-03-27T05:45:13.754Z,101280.97
2023-03-27T05:47:52.621Z,101273.44
2023-03-27T05:50:21.694Z,101266.13
2023-03-27T05:52:55.837Z,101262.66
2023-03-27T05:55:22.716Z,101265.97
2023-03-27T05:57:49.223Z,101268.09
2023-03-27T06:00:16.598Z,101279.19
2023-03-27T06:02:45.011Z,101291.78
2023-03-27T06:05:16.738Z,101305.03
2023-03-27T06:07:43.846Z,101311.31
2023-03-27T06:10:13.877Z,101325.31
2023-03-27T06:12:41.876Z,101332.06
2023-03-27T06:15:10.296Z,101353.31
2023-03-27T06:17:39.469Z,101363.25
2023-03-27T06:20:15.584Z,101376.09
2023-03-27T06:22:47.301Z,101396.53
2023-03-27T06:25:14.879Z,101410.75
2023-03-27T06:27:45.665Z,101420.03
2023-03-27T06:30:14.588Z,101431.94
2023-03-27T06:32:49.295Z,101449.75
2023-03-27T06:35:16.508Z,101457.09
2023-03-27T06:37:50.741Z,101468.31
2023-03-27T06:40:23.809Z,101477.69
2023-03-27T06:43:09.397Z,101502.84
2023-03-27T06:45:43.036Z,101545.53
2023-03-27T06:48:16.955Z,101599.72
2023-03-27T06:50:48.443Z,101654.50
2023-03-27T06:53:26.629Z,101700.25
2023-03-27T06:55:54.923Z,101752.84
2023-03-27T06:58:21.927Z,101782.66
2023-03-27T07:00:49.799Z,101806.53
2023-03-27T07:03:18.053Z,101824.03
2023-03-27T07:05:45.599Z,101854.03
2023-03-27T07:10:46.987Z,101854.66
2023-03-27T07:13:18.109Z,101838.53
2023-03-27T07:15:44.624Z,101841.41
2023-03-27T07:18:11.525Z,101820.22
2023-03-27T07:20:39.334Z,101799.97
2023-03-27T07:23:05.985Z,101768.91
2023-03-27T07:25:37.495Z,101752.38
2023-03-27T07:28:07.046Z,101728.00
2023-03-27T07:30:34.388Z,101720.47
2023-03-27T07:33:01.534Z,101706.16
2023-03-27T07:35:28.163Z,101693.66
2023-03-27T07:37:55.637Z,101689.84
2023-03-27T07:40:33.031Z,101692.94
2023-03-27T07:43:09.320Z,101704.94
2023-03-27T07:45:36.638Z,101686.59
2023-03-27T07:48:12.198Z,101694.16
2023-03-27T07:50:39.102Z,101691.03
2023-03-27T07:53:08.769Z,101685.03
2023-03-27T07:55:38.046Z,101694.88
2023-03-27T07:58:06.880Z,101714.94
2023-03-27T08:00:35.946Z,101744.78
2023-03-27T08:03:07.615Z,101783.66
2023-03-27T08:05:34.723Z,101858.38
2023-03-27T08:08:01.447Z,101953.72
2023-03-27T08:10:28.192Z,101994.75
2023-03-27T08:12:54.716Z,102016.09
2023-03-27T08:15:21.200Z,102056.06
2023-03-27T08:17:47.812Z,102118.22
2023-03-27T08:20:15.362Z,102150.66
2023-03-27T08:22:41.954Z,102157.47
2023-03-27T08:25:10.521Z,102192.41
2023-03-27T08:27:37.081Z,102203.28
2023-03-27T08:30:05.159Z,102221.44
2023-03-27T08:32:31.901Z,102243.16
2023-03-27T08:34:58.647Z,102241.63
2023-03-27T08:37:25.546Z,102255.06
2023-03-27T08:39:52.107Z,102259.69
2023-03-27T08:42:22.504Z,102279.47
2023-03-27T08:44:54.970Z,102280.94
2023-03-27T08:47:31.928Z,102270.63
2023-03-27T08:50:02.576Z,102293.78
2023-03-27T08:52:32.048Z,102301.56
2023-03-27T08:55:07.979Z,102313.03
2023-03-27T08:57:34.924Z,102313.09
2023-03-27T09:00:02.232Z,102325.03
2023-03-27T09:02:51.473Z,102332.72
2023-03-27T09:05:32.790Z,102346.16
2023-03-27T09:08:19.512Z,102324.44
2023-03-27T09:11:03.235Z,102308.78
2023-03-27T09:14:08.748Z,102298.31
2023-03-27T09:16:49.436Z,102320.69
2023-03-27T09:19:31.579Z,102320.69
2023-03-27T09:22:04.391Z,102323.34
2023-03-27T09:24:40.560Z,102312.88
2023-03-27T09:27:34.784Z,102286.09
2023-03-27T09:30:18.619Z,102262.94
2023-03-27T09:32:48.626Z,102319.88
2023-03-27T09:35:17.103Z,102323.50
2023-03-27T09:37:44.276Z,102339.63
2023-03-27T09:40:30.839Z,102348.78
2023-03-27T09:43:08.625Z,102383.31
2023-03-27T09:45:40.669Z,102372.09
2023-03-27T09:48:16.269Z,102368.34
2023-03-27T09:50:47.112Z,102365.13
2023-03-27T09:53:21.060Z,102374.78
2023-03-27T09:56:13.003Z,102391.88
2023-03-27T09:58:47.315Z,102400.75
2023-03-27T10:01:19.737Z,102374.72
2023-03-27T10:03:50.088Z,102357.19
2023-03-27T10:06:41.262Z,102324.56
2023-03-27T10:09:27.724Z,102296.41
2023-03-27T10:12:08.227Z,102284.09
2023-03-27T10:14:43.589Z,102263.31
2023-03-27T10:17:21.787Z,102253.88
2023-03-27T10:19:52.374Z,102258.59
2023-03-27T10:22:27.847Z,102263.59
2023-03-27T10:24:58.984Z,102285.00
2023-03-27T10:27:29.999Z,102338.50
2023-03-27T10:29:57.647Z,102347.06
2023-03-27T10:32:45.997Z,102370.94
2023-03-27T10:35:48.360Z,102388.63
2023-03-27T10:38:17.635Z,102413.22
2023-03-27T10:40:49.996Z,102409.50
2023-03-27T10:43:24.430Z,102400.06
2023-03-27T10:45:58.241Z,102398.94
2023-03-27T10:48:50.248Z,102395.41
2023-03-27T10:52:13.974Z,102401.31
2023-03-27T10:55:07.370Z,102428.91
2023-03-27T10:57:34.694Z,102438.66
2023-03-27T11:00:20.737Z,102444.16
2023-03-27T11:03:18.681Z,102428.84
2023-03-27T11:05:48.252Z,102471.31
2023-03-27T11:08:53.172Z,102480.84
2023-03-27T11:11:27.597Z,102485.47
2023-03-27T11:13:59.614Z,102501.34
2023-03-27T11:16:39.940Z,102484.47
2023-03-27T11:19:12.400Z,102467.03
2023-03-27T11:21:47.600Z,102464.31
2023-03-27T11:24:32.395Z,102456.38
2023-03-27T11:27:09.961Z,102445.50
2023-03-27T11:29:44.233Z,102427.28
2023-03-27T11:32:29.642Z,102433.50
2023-03-27T11:35:06.930Z,102429.13
2023-03-27T11:37:57.214Z,102465.69
2023-03-27T11:40:37.795Z,102486.03
2023-03-27T11:43:04.538Z,102473.50
2023-03-27T11:45:46.565Z,102480.19
2023-03-27T11:48:32.840Z,102494.84
2023-03-27T11:51:19.507Z,102505.09
2023-03-27T11:54:09.483Z,102525.97
2023-03-27T11:56:54.511Z,102530.34
2023-03-27T11:59:46.689Z,102530.22
2023-03-27T12:02:34.624Z,102529.06
2023-03-27T12:05:17.068Z,102530.22
2023-03-27T12:08:21.727Z,102529.13
2023-03-27T12:10:52.714Z,102543.03
2023-03-27T12:13:34.936Z,102533.56
2023-03-27T12:16:26.678Z,102523.28
2023-03-27T12:19:08.076Z,102531.75
2023-03-27T12:21:46.636Z,102516.47
2023-03-27T12:24:27.511Z,102515.63
2023-03-27T12:27:11.125Z,102526.19
2023-03-27T12:29:43.513Z,102548.88
2023-03-27T12:32:24.999Z,102554.19
2023-03-27T12:34:56.534Z,102568.00
2023-03-27T12:37:27.443Z,102577.97
2023-03-27T12:39:59.150Z,102559.53
2023-03-27T12:42:48.851Z,102568.34
2023-03-27T12:45:22.556Z,102567.50
2023-03-27T12:48:10.935Z,102567.00
2023-03-27T12:50:45.576Z,102574.50
2023-03-27T12:53:27.173Z,102579.44
2023-03-27T12:56:16.411Z,102566.53
2023-03-27T12:58:45.837Z,102561.09
2023-03-27T13:01:45.546Z,102548.88
2023-03-27T13:04:34.277Z,102537.22
2023-03-27T13:07:17.223Z,102535.34
2023-03-27T13:10:13.643Z,102537.91
2023-03-27T13:12:52.013Z,102552.41
2023-03-27T13:15:38.738Z,102558.16
2023-03-27T13:18:32.698Z,102556.16
2023-03-27T13:21:37.688Z,102568.97
2023-03-27T13:24:22.072Z,102575.78
2023-03-27T13:27:06.817Z,102567.22
2023-03-27T13:29:35.084Z,102569.53
2023-03-27T13:32:20.380Z,102578.06
2023-03-27T13:35:23.244Z,102596.31
2023-03-27T13:37:49.773Z,102579.69
2023-03-27T13:40:26.716Z,102595.28
2023-03-27T13:43:09.372Z,102594.78
2023-03-27T13:45:47.199Z,102579.47
2023-03-27T13:48:36.605Z,102561.94
2023-03-27T13:51:31.196Z,102577.53
2023-03-27T13:53:57.674Z,102574.34
2023-03-27T13:57:00.687Z,102570.97
2023-03-27T13:59:41.850Z,102585.47
2023-03-27T14:02:14.623Z,102588.53
2023-03-27T14:04:57.535Z,102566.06
2023-03-27T14:07:58.310Z,102563.44
2023-03-27T14:10:50.456Z,102591.13
2023-03-27T14:13:42.131Z,102593.69
2023-03-27T14:16:29.450Z,102591.19
2023-03-27T14:19:31.906Z,102596.69
2023-03-27T14:22:00.970Z,102591.28
2023-03-27T14:24:38.238Z,102574.72
2023-03-27T14:27:10.127Z,102561.78
2023-03-27T14:29:36.652Z,102525.75
2023-03-27T14:32:12.280Z,102506.50
2023-03-27T14:37:39.227Z,102474.56
2023-03-27T14:40:20.545Z,102455.69
2023-03-27T14:42:49.644Z,102453.66
2023-03-27T14:45:23.358Z,102446.69
2023-03-27T14:47:53.155Z,102465.00
2023-03-27T14:50:19.997Z,102481.09
2023-03-27T14:52:51.681Z,102494.28
2023-03-27T14:55:18.775Z,102475.69
2023-03-27T14:57:49.444Z,102475.31
2023-03-27T15:00:20.889Z,102487.97
2023-03-27T15:02:49.428Z,102517.41
2023-03-27T15:05:18.236Z,102518.81
2023-03-27T15:07:49.349Z,102528.72
2023-03-27T15:10:22.497Z,102539.81
2023-03-27T15:12:49.511Z,102534.50
2023-03-27T15:15:23.201Z,102539.09
2023-03-27T15:17:54.821Z,102550.66
2023-03-27T15:20:30.259Z,102547.38
2023-03-27T15:23:02.965Z,102545.56
2023-03-27T15:25:42.756Z,102547.81
2023-03-27T15:28:24.403Z,102561.44
2023-03-27T15:30:54.681Z,102552.31
2023-03-27T15:33:42.774Z,102563.09
2023-03-27T15:36:22.898Z,102567.06
2023-03-27T15:38:51.039Z,102566.19
2023-03-27T15:41:17.804Z,102578.31
2023-03-27T15:43:44.541Z,102569.97
2023-03-27T15:46:19.884Z,102577.25
2023-03-27T15:48:51.389Z,102567.31
2023-03-27T15:51:21.098Z,102574.97
2023-03-27T15:53:50.988Z,102571.19
2023-03-27T15:56:27.298Z,102586.88
2023-03-27T15:59:04.678Z,102584.47
2023-03-27T16:01:54.137Z,102589.44
2023-03-27T16:04:25.773Z,102600.63
2023-03-27T16:07:07.264Z,102613.81
2023-03-27T16:09:45.607Z,102618.91
2023-03-27T16:12:13.143Z,102612.81
2023-03-27T16:14:52.808Z,102610.59
2023-03-27T16:17:31.372Z,102614.81
2023-03-27T16:19:57.835Z,102602.06
2023-03-27T16:22:31.404Z,102607.69
2023-03-27T16:24:59.817Z,102609.75
2023-03-27T16:27:38.628Z,102628.38
2023-03-27T16:30:08.020Z,102644.78
2023-03-27T16:32:35.545Z,102636.88
2023-03-27T16:35:02.333Z,102640.50
2023-03-27T16:37:29.296Z,102636.91
2023-03-27T16:39:56.153Z,102627.34
2023-03-27T16:42:26.255Z,102626.28
2023-03-27T16:44:53.372Z,102630.59
2023-03-27T16:47:20.599Z,102629.28
2023-03-27T16:49:56.245Z,102629.63
2023-03-27T16:52:34.319Z,102630.50
2023-03-27T16:55:01.967Z,102637.16
2023-03-27T16:57:28.635Z,102637.41
2023-03-27T16:59:55.675Z,102629.28
2023-03-27T17:02:22.195Z,102624.00
2023-03-27T17:04:48.773Z,102639.22
2023-03-27T17:07:15.938Z,102636.84
2023-03-27T17:09:44.016Z,102629.41
2023-03-27T17:12:11.621Z,102626.41
2023-03-27T17:14:39.483Z,102613.75
2023-03-27T17:17:06.515Z,102616.59
2023-03-27T17:19:33.191Z,102627.25
2023-03-27T17:22:00.213Z,102622.09
2023-03-27T17:24:26.960Z,102628.69
2023-03-27T17:26:53.606Z,102624.47
2023-03-27T17:29:20.381Z,102629.50
2023-03-27T17:31:47.284Z,102628.50
2023-03-27T17:34:14.011Z,102640.59
2023-03-27T17:36:47.222Z,102638.44
2023-03-27T17:39:19.096Z,102629.03
2023-03-27T17:41:45.852Z,102622.78
2023-03-27T17:44:13.091Z,102616.34
2023-03-27T17:46:39.725Z,102603.47
2023-03-27T17:49:06.370Z,102598.91
2023-03-27T17:51:34.538Z,102598.84
2023-03-27T17:54:02.090Z,102591.88
2023-03-27T17:56:29.015Z,102581.22
2023-03-27T17:58:56.225Z,102592.44
2023-03-27T18:01:24.376Z,102607.63
2023-03-27T18:03:51.708Z,102596.50
2023-03-27T18:06:20.755Z,102586.72
2023-03-27T18:08:47.469Z,102556.56
2023-03-27T18:11:15.963Z,102569.81
2023-03-27T18:13:42.858Z,102574.56
2023-03-27T18:16:13.152Z,102567.03
2023-03-27T18:18:40.453Z,102554.91
2023-03-27T18:21:07.351Z,102572.47
2023-03-27T18:23:35.279Z,102553.13
2023-03-27T18:26:08.500Z,102544.41
2023-03-27T18:39:02.978Z,102507.63
2023-03-27T18:52:11.715Z,102455.03
2023-03-27T19:02:08.915Z,102467.56
2023-03-27T19:05:00.236Z,102438.66
2023-03-27T19:07:27.134Z,102460.22
2023-03-27T19:09:53.711Z,102456.09
2023-03-27T19:12:20.638Z,102431.00
2023-03-27T19:14:47.293Z,102439.50
2023-03-27T19:17:14.932Z,102427.44
2023-03-27T19:19:43.389Z,102416.00
2023-03-27T19:22:12.759Z,102402.00
2023-03-27T19:24:40.457Z,102399.88
2023-03-27T19:27:07.776Z,102394.28
2023-03-27T19:29:50.887Z,102386.59
2023-03-27T19:32:17.573Z,102378.97
2023-03-27T19:34:44.744Z,102373.94
2023-03-27T19:37:11.330Z,102361.94
2023-03-27T19:39:38.073Z,102353.63
2023-03-27T19:42:04.882Z,102337.44
2023-03-27T19:44:31.916Z,102335.63
2023-03-27T19:46:58.574Z,102333.97
2023-03-27T19:49:25.349Z,102326.22
2023-03-27T19:51:52.765Z,102335.91
2023-03-27T19:54:19.313Z,102327.34
2023-03-27T19:56:46.055Z,102329.94
2023-03-27T19:59:20.768Z,102318.03
2023-03-27T20:01:54.694Z,102326.50
2023-03-27T20:04:21.376Z,102313.16
2023-03-27T20:06:48.668Z,102321.75
2023-03-27T20:09:15.488Z,102319.22
2023-03-27T20:11:41.981Z,102322.69
2023-03-27T20:14:11.691Z,102321.94
2023-03-27T20:16:41.395Z,102321.84
2023-03-27T20:19:09.438Z,102307.47
2023-03-27T20:21:39.054Z,102321.75
2023-03-27T20:24:09.780Z,102322.03
2023-03-27T20:26:40.526Z,102317.00
2023-03-27T20:29:12.901Z,102319.13
2023-03-27T20:31:40.097Z,102312.22
2023-03-27T20:34:07.929Z,102313.34
2023-03-27T20:36:35.220Z,102324.03
2023-03-27T20:39:04.697Z,102319.44
2023-03-27T20:41:31.618Z,102321.59
2023-03-27T20:43:58.959Z,102321.00
2023-03-27T20:46:30.242Z,102307.97
2023-03-27T20:48:57.354Z,102312.84
2023-03-27T20:51:24.957Z,102301.88
2023-03-27T20:53:56.257Z,102289.97
2023-03-27T20:56:23.475Z,102265.75
2023-03-27T20:58:51.445Z,102258.38
2023-03-27T21:01:27.617Z,102244.44
2023-03-27T21:03:58.197Z,102244.59
2023-03-27T21:06:25.876Z,102240.63
2023-03-27T21:08:52.442Z,102237.72
2023-03-27T21:11:18.972Z,102226.44
2023-03-27T21:13:45.783Z,102223.56
2023-03-27T21:16:12.374Z,102235.19
2023-03-27T21:18:39.145Z,102230.25
2023-03-27T21:21:06.151Z,102232.75
2023-03-27T21:23:33.087Z,102229.31
2023-03-27T21:25:59.810Z,102238.41
2023-03-27T21:28:26.520Z,102236.84
2023-03-27T21:30:56.008Z,102224.22
2023-03-27T21:33:22.614Z,102231.69
2023-03-27T21:35:49.699Z,102229.72
2023-03-27T21:38:17.998Z,102218.78
2023-03-27T21:40:46.556Z,102220.19
2023-03-27T21:43:13.808Z,102216.00
2023-03-27T21:45:40.436Z,102218.88
2023-03-27T21:48:07.414Z,102216.38
2023-03-27T21:50:34.077Z,102222.09
2023-03-27T21:53:00.708Z,102227.94
2023-03-27T21:55:27.386Z,102234.53
2023-03-27T21:57:53.870Z,102233.22
2023-03-27T22:00:20.695Z,102228.19
2023-03-27T22:02:47.243Z,102228.84
2023-03-27T22:05:13.937Z,102217.03
2023-03-27T22:07:40.508Z,102215.19
2023-03-27T22:10:07.528Z,102210.63
2023-03-27T22:12:36.040Z,102201.06
2023-03-27T22:15:07.043Z,102205.34
2023-03-27T22:17:36.548Z,102204.16
2023-03-27T22:20:05.009Z,102195.78
2023-03-27T22:22:34.212Z,102191.88
2023-03-27T22:25:01.111Z,102186.75
2023-03-27T22:27:27.775Z,102196.53
2023-03-27T22:29:54.378Z,102195.88
2023-03-27T22:32:20.950Z,102192.34
2023-03-27T22:34:49.149Z,102197.47
2023-03-27T22:37:16.918Z,102201.25
2023-03-27T22:39:43.613Z,102191.78
2023-03-27T22:42:10.299Z,102198.66
2023-03-27T22:44:36.901Z,102192.88
2023-03-27T22:47:03.523Z,102204.06
2023-03-27T22:49:30.438Z,102193.53
2023-03-27T22:51:57.018Z,102189.94
2023-03-27T22:54:23.691Z,102191.03
2023-03-27T22:56:50.377Z,102184.97
2023-03-27T22:59:19.990Z,102185.53
2023-03-27T23:01:46.786Z,102204.47
2023-03-27T23:04:13.480Z,102209.19
2023-03-27T23:06:40.054Z,102206.88
2023-03-27T23:09:08.361Z,102203.94
2023-03-27T23:11:34.875Z,102202.53
2023-03-27T23:14:01.413Z,102207.06
2023-03-27T23:16:28.078Z,102202.69
2023-03-27T23:18:54.647Z,102206.03
2023-03-27T23:21:21.303Z,102203.25
2023-03-27T23:23:47.942Z,102204.78
2023-03-27T23:26:14.852Z,102197.06
2023-03-27T23:28:42.469Z,102203.25
2023-03-27T23:31:14.940Z,102196.88
2023-03-27T23:33:47.243Z,102202.75
2023-03-27T23:36:16.850Z,102199.38
2023-03-27T23:38:43.461Z,102204.78
2023-03-27T23:41:12.712Z,102205.72
2023-03-27T23:43:39.266Z,102206.22
2023-03-27T23:46:10.405Z,102208.16
2023-03-27T23:48:41.863Z,102207.31
2023-03-27T23:51:09.623Z,102209.00
2023-03-27T23:53:36.950Z,102208.06
2023-03-27T23:56:03.822Z,102208.91
2023-03-27T23:58:33.485Z,102209.59
